createdAt,value
2018-11-22T12:18:14.014Z,54.77
2018-11-22T12:20:41.045Z,61.90
2018-11-22T12:23:08.067Z,46.50
2018-11-22T12:25:35.159Z,58.20
2018-11-22T12:28:02.563Z,55.60
2018-11-22T12:30:30.937Z,60.03
2018-11-22T12:32:57.989Z,58.90
2018-11-22T12:35:30.830Z,61.20
2018-11-22T12:38:03.948Z,54.50
2018-11-22T12:40:30.990Z,59.40
2018-11-22T12:42:58.104Z,61.63
2018-11-22T12:45:25.565Z,55.03
2018-11-22T12:47:52.604Z,58.33
2018-11-22T12:50:19.733Z,55.23
2018-11-22T12:52:46.821Z,46.70
2018-11-22T12:55:20.177Z,57.10
2018-11-22T12:57:47.357Z,58.17
2018-11-22T13:00:15.357Z,50.97
2018-11-22T13:02:42.740Z,62.90
2018-11-22T13:05:10.757Z,60.27
2018-11-22T13:07:38.043Z,60.23
2018-11-22T13:10:15.788Z,65.13
2018-11-22T13:12:44.001Z,59.03
2018-11-22T13:15:12.711Z,49.40
2018-11-22T13:17:40.155Z,62.53
2018-11-22T13:20:08.121Z,63.63
2018-11-22T13:22:35.240Z,75.33
2018-11-22T13:25:02.709Z,49.70
2018-11-22T13:27:29.804Z,61.27
2018-11-22T13:29:56.865Z,61.93
2018-11-22T13:32:23.968Z,72.10
2018-11-22T13:34:51.037Z,63.30
2018-11-22T13:37:18.076Z,55.83
2018-11-22T13:39:45.123Z,62.83
2018-11-22T13:42:12.252Z,64.57
2018-11-22T13:44:39.281Z,61.10
2018-11-22T13:47:06.388Z,64.47
2018-11-22T13:49:33.457Z,59.50
2018-11-22T13:52:00.521Z,65.93
2018-11-22T13:54:27.577Z,64.90
2018-11-22T13:56:54.832Z,63.00
2018-11-22T13:59:22.022Z,66.27
2018-11-22T14:01:49.457Z,66.33
2018-11-22T14:04:16.516Z,49.27
2018-11-22T14:06:43.660Z,57.60
2018-11-22T14:09:11.417Z,57.77
2018-11-22T14:11:38.447Z,63.60
2018-11-22T14:14:05.484Z,67.67
2018-11-22T14:16:32.595Z,71.10
2018-11-22T14:18:59.668Z,69.33
2018-11-22T14:21:26.851Z,68.53
2018-11-22T14:23:53.928Z,69.47
2018-11-22T14:26:20.996Z,69.20
2018-11-22T14:28:48.053Z,67.33
2018-11-22T14:31:15.125Z,64.80
2018-11-22T14:33:42.165Z,61.93
2018-11-22T14:36:09.269Z,59.20
2018-11-22T14:38:36.601Z,63.13
2018-11-22T14:41:03.964Z,72.03
2018-11-22T14:43:31.084Z,46.33
2018-11-22T14:45:58.509Z,60.10
2018-11-22T14:48:25.626Z,75.23
2018-11-22T14:50:55.331Z,74.93
2018-11-22T14:53:22.425Z,71.63
2018-11-22T14:55:49.454Z,72.97
2018-11-22T14:58:16.498Z,71.37
2018-11-22T15:00:43.636Z,69.57
2018-11-22T15:03:10.672Z,65.47
2018-11-22T15:05:37.704Z,64.73
2018-11-22T15:08:04.788Z,73.80
2018-11-22T15:10:31.829Z,71.53
2018-11-22T15:12:59.031Z,62.63
2018-11-22T15:15:27.029Z,76.93
2018-11-22T15:17:54.051Z,68.03
2018-11-22T15:20:21.245Z,72.73
2018-11-22T15:22:49.318Z,78.03
2018-11-22T15:25:18.788Z,61.97
2018-11-22T15:27:45.876Z,73.03
2018-11-22T15:30:14.651Z,68.57
2018-11-22T15:32:41.704Z,68.43
2018-11-22T15:35:10.191Z,64.73
2018-11-22T15:37:38.489Z,77.10
2018-11-22T15:40:05.716Z,69.13
2018-11-22T15:42:33.064Z,68.17
2018-11-22T15:45:00.568Z,56.67
2018-11-22T15:47:27.589Z,61.30
2018-11-22T15:49:54.653Z,71.50
2018-11-22T15:52:21.974Z,71.83
2018-11-22T15:54:49.053Z,70.27
2018-11-22T15:57:16.090Z,73.97
2018-11-22T15:59:43.224Z,76.10
2018-11-22T16:02:10.257Z,72.47
2018-11-22T16:04:37.327Z,74.37
2018-11-22T16:07:04.600Z,64.20
2018-11-22T16:09:31.629Z,80.53
2018-11-22T16:11:58.658Z,63.47
2018-11-22T16:14:25.704Z,75.23
2018-11-22T16:16:52.738Z,70.37
2018-11-22T16:19:19.781Z,50.27
2018-11-22T16:21:47.149Z,65.73
2018-11-22T16:24:14.172Z,52.13
2018-11-22T16:26:42.198Z,55.97
2018-11-22T16:29:09.628Z,71.73
2018-11-22T16:31:36.760Z,70.47
2018-11-22T16:34:03.913Z,75.57
2018-11-22T16:36:30.952Z,66.10
2018-11-22T16:38:58.096Z,77.77
2018-11-22T16:41:25.164Z,62.73
2018-11-22T16:43:52.444Z,71.47
2018-11-22T16:46:19.496Z,63.37
2018-11-22T16:48:46.557Z,68.73
2018-11-22T16:51:13.836Z,71.47
2018-11-22T16:53:40.855Z,60.57
2018-11-22T16:56:07.915Z,63.97
2018-11-22T16:58:34.962Z,56.63
2018-11-22T17:01:02.067Z,66.33
2018-11-22T17:03:29.129Z,66.73
2018-11-22T17:05:56.472Z,65.90
2018-11-22T17:08:23.640Z,69.83
2018-11-22T17:10:50.708Z,64.83
2018-11-22T17:13:18.033Z,71.90
2018-11-22T17:15:45.078Z,62.40
2018-11-22T17:18:12.153Z,55.17
2018-11-22T17:20:39.681Z,65.67
2018-11-22T17:23:07.204Z,70.90
2018-11-22T17:25:35.137Z,71.80
2018-11-22T17:28:04.589Z,60.27
2018-11-22T17:30:33.113Z,62.53
2018-11-22T17:35:34.306Z,74.60
2018-11-22T17:38:02.685Z,65.50
2018-11-22T17:40:31.084Z,68.47
2018-11-22T17:42:58.528Z,67.10
2018-11-22T17:45:30.783Z,81.27
2018-11-22T17:47:57.977Z,71.77
2018-11-22T17:50:27.783Z,70.30
2018-11-22T17:52:54.963Z,92.20
2018-11-22T17:55:23.705Z,84.63
2018-11-22T17:57:50.805Z,80.73
2018-11-22T18:00:19.534Z,82.53
2018-11-22T18:02:48.252Z,81.60
2018-11-22T18:05:15.352Z,90.60
2018-11-22T18:07:42.429Z,73.73
2018-11-22T18:10:11.544Z,76.73
2018-11-22T18:12:38.993Z,88.30
2018-11-22T18:15:06.937Z,74.63
2018-11-22T18:17:34.222Z,78.00
2018-11-22T18:20:01.353Z,83.10
2018-11-22T18:22:28.400Z,84.93
2018-11-22T18:24:55.801Z,81.83
2018-11-22T18:27:22.929Z,93.37
2018-11-22T18:29:50.085Z,76.53
2018-11-22T18:32:17.561Z,79.47
2018-11-22T18:34:44.637Z,84.60
2018-11-22T18:37:11.984Z,90.07
2018-11-22T18:39:39.329Z,87.23
2018-11-22T18:42:06.397Z,76.70
2018-11-22T18:44:33.481Z,87.47
2018-11-22T18:47:00.973Z,84.53
2018-11-22T18:49:28.176Z,89.60
2018-11-22T18:51:55.224Z,77.37
2018-11-22T18:54:22.640Z,91.00
2018-11-22T18:56:49.720Z,63.00
2018-11-22T18:59:16.760Z,83.17
2018-11-22T19:01:45.074Z,74.50
2018-11-22T19:04:11.189Z,82.53
2018-11-22T19:06:38.243Z,87.67
2018-11-22T19:09:07.268Z,69.37
2018-11-22T19:11:34.378Z,69.67
2018-11-22T19:14:01.432Z,80.67
2018-11-22T19:16:28.733Z,80.77
2018-11-22T19:18:55.774Z,78.63
2018-11-22T19:21:22.892Z,60.73
2018-11-22T19:23:50.234Z,95.73
2018-11-22T19:26:17.284Z,85.63
2018-11-22T19:28:44.316Z,85.60
2018-11-22T19:31:11.625Z,90.70
2018-11-22T19:33:38.697Z,78.50
2018-11-22T19:36:05.785Z,82.10
2018-11-22T19:38:39.861Z,72.47
2018-11-22T19:41:06.923Z,82.47
2018-11-22T19:43:34.017Z,90.10
2018-11-22T19:46:01.383Z,83.63
2018-11-22T19:48:28.430Z,77.80
2018-11-22T19:50:55.533Z,80.13
2018-11-22T19:53:22.834Z,64.67
2018-11-22T19:55:49.977Z,83.20
2018-11-22T19:58:17.656Z,78.87
2018-11-22T20:00:44.768Z,79.87
2018-11-22T20:03:11.847Z,76.00
2018-11-22T20:05:39.997Z,73.80
2018-11-22T20:08:11.075Z,81.70
2018-11-22T20:10:39.801Z,82.07
2018-11-22T20:13:07.184Z,81.93
2018-11-22T20:15:34.909Z,72.80
2018-11-22T20:18:03.292Z,79.30
2018-11-22T20:20:30.445Z,71.07
2018-11-22T20:22:58.384Z,82.43
2018-11-22T20:25:25.777Z,72.17
2018-11-22T20:27:53.948Z,63.23
2018-11-22T20:30:23.144Z,82.23
2018-11-22T20:32:50.274Z,64.27
2018-11-22T20:35:18.245Z,43.97
2018-11-22T20:37:46.234Z,72.67
2018-11-22T20:40:14.841Z,66.20
2018-11-22T20:42:42.068Z,68.97
2018-11-22T20:45:10.618Z,69.70
2018-11-22T20:47:38.381Z,69.47
2018-11-22T20:50:06.437Z,68.97
2018-11-22T20:52:33.625Z,58.53
2018-11-22T20:55:00.752Z,52.57
2018-11-22T20:57:27.871Z,57.13
2018-11-22T20:59:55.960Z,69.43
2018-11-22T21:02:23.287Z,69.30
2018-11-22T21:04:50.466Z,60.63
2018-11-22T21:07:17.605Z,56.00
2018-11-22T21:09:44.768Z,65.33
2018-11-22T21:12:11.993Z,50.43
2018-11-22T21:14:39.476Z,64.57
2018-11-22T21:17:06.600Z,62.40
2018-11-22T21:19:33.775Z,66.73
2018-11-22T21:22:01.430Z,74.53
2018-11-22T21:24:29.215Z,64.70
2018-11-22T21:26:56.902Z,64.60
2018-11-22T21:29:24.852Z,56.93
2018-11-22T21:31:52.019Z,61.27
2018-11-22T21:34:19.075Z,58.97
2018-11-22T21:36:46.496Z,63.93
2018-11-22T21:39:13.572Z,56.97
2018-11-22T21:41:40.916Z,60.07
2018-11-22T21:44:08.557Z,52.63
2018-11-22T21:46:35.741Z,45.67
2018-11-22T21:49:03.536Z,51.67
2018-11-22T21:51:31.205Z,58.90
2018-11-22T21:53:58.477Z,56.00
2018-11-22T21:56:25.654Z,56.30
2018-11-22T21:58:52.826Z,47.27
2018-11-22T22:01:19.984Z,48.17
2018-11-22T22:03:47.202Z,50.17
2018-11-22T22:06:14.761Z,45.53
2018-11-22T22:08:42.077Z,51.40
2018-11-22T22:11:09.297Z,54.33
2018-11-22T22:13:36.553Z,58.23
2018-11-22T22:16:03.975Z,50.83
2018-11-22T22:18:31.092Z,50.00
2018-11-22T22:20:58.347Z,48.77
2018-11-22T22:23:25.645Z,52.10
2018-11-22T22:25:52.777Z,44.03
2018-11-22T22:28:20.240Z,53.33
2018-11-22T22:30:47.394Z,52.37
2018-11-22T22:33:14.747Z,47.87
2018-11-22T22:35:42.313Z,46.70
2018-11-22T22:38:09.489Z,54.00
2018-11-22T22:40:36.796Z,51.03
2018-11-22T22:43:04.566Z,59.80
2018-11-22T22:45:32.361Z,49.37
2018-11-22T22:47:59.532Z,43.17
2018-11-22T22:50:27.844Z,54.83
2018-11-22T22:52:56.328Z,44.97
2018-11-22T22:55:23.565Z,45.53
2018-11-22T22:57:50.828Z,50.70
2018-11-22T23:00:25.069Z,49.20
2018-11-22T23:02:54.699Z,53.37
2018-11-22T23:05:22.453Z,51.67
2018-11-22T23:07:49.921Z,52.37
2018-11-22T23:10:18.063Z,58.17
2018-11-22T23:12:45.154Z,54.37
2018-11-22T23:15:13.421Z,53.97
2018-11-22T23:17:40.885Z,54.30
2018-11-22T23:20:10.296Z,50.47
2018-11-22T23:22:37.726Z,55.23
2018-11-22T23:25:06.998Z,55.97
2018-11-22T23:27:34.320Z,53.57
2018-11-22T23:30:01.405Z,61.13
2018-11-22T23:32:28.546Z,53.03
2018-11-22T23:34:56.307Z,57.27
2018-11-22T23:37:23.505Z,52.17
2018-11-22T23:39:50.809Z,54.40
2018-11-22T23:42:17.900Z,42.83
2018-11-22T23:44:45.105Z,47.00
2018-11-22T23:47:12.591Z,59.07
2018-11-22T23:49:39.667Z,60.20
2018-11-22T23:52:06.736Z,55.90
2018-11-22T23:54:33.827Z,55.07
2018-11-22T23:57:00.961Z,58.63
2018-11-22T23:59:28.120Z,54.63
